Time;durP1;ratioP1;P1;durP2;ratioP2;P2;SDS_P1;SDS_P2;PMS_P1;PMS_P2;Temp;Humidity;BMP_temperature;BMP_pressure;BME280_temperature;BME280_humidity;BME280_pressure;Samples;Min_cycle;Max_cycle;Signal;HPM_P1;HPM_P2
2022/02/15 00:00:07;;;;;;;23.38;18.25;;;5.80;99.90;;;;;;5055840;28;20276;-74
2022/02/15 00:02:34;;;;;;;29.23;19.90;;;5.80;99.90;;;;;;5072594;28;20204;-73
2022/02/15 00:05:00;;;;;;;24.23;18.42;;;5.70;99.90;;;;;;5073778;28;20204;-72
2022/02/15 00:07:26;;;;;;;26.08;20.10;;;5.70;99.90;;;;;;5073829;28;20711;-75
2022/02/15 00:09:52;;;;;;;20.85;18.65;;;5.70;99.90;;;;;;5075678;28;20276;-76
2022/02/15 00:12:20;;;;;;;26.40;19.17;;;5.70;99.90;;;;;;5075992;28;20200;-74
2022/02/15 00:14:46;;;;;;;24.90;19.30;;;5.60;99.90;;;;;;5078321;28;20188;-74
2022/02/15 00:17:13;;;;;;;22.90;18.27;;;5.60;99.90;;;;;;5076108;28;20191;-74
2022/02/15 00:19:40;;;;;;;27.35;19.38;;;5.60;99.90;;;;;;5059562;28;20584;-74
2022/02/15 00:22:06;;;;;;;22.38;18.33;;;5.50;99.90;;;;;;5077326;28;20210;-74
2022/02/15 00:24:33;;;;;;;24.10;16.92;;;5.50;99.90;;;;;;5075706;28;20200;-74
2022/02/15 00:27:02;;;;;;;21.95;16.73;;;5.50;99.90;;;;;;5077228;28;20280;-74
2022/02/15 00:29:28;;;;;;;18.88;15.02;;;5.50;99.90;;;;;;5077014;28;20224;-73
2022/02/15 00:31:55;;;;;;;22.42;14.65;;;5.50;99.90;;;;;;5077392;28;20214;-74
2022/02/15 00:34:21;;;;;;;17.80;15.27;;;5.50;99.90;;;;;;5077025;28;20203;-74
2022/02/15 00:36:48;;;;;;;15.70;13.73;;;5.50;99.90;;;;;;5077266;28;20200;-73
2022/02/15 00:39:14;;;;;;;24.25;14.70;;;5.50;99.90;;;;;;5076448;28;20204;-73
2022/02/15 00:41:40;;;;;;;15.90;13.85;;;5.60;99.90;;;;;;5076207;28;20200;-73
2022/02/15 00:44:07;;;;;;;18.05;14.15;;;5.60;99.90;;;;;;5076881;28;20208;-73
2022/02/15 00:46:33;;;;;;;15.57;13.95;;;5.60;99.90;;;;;;5076975;28;20718;-73
2022/02/15 00:48:59;;;;;;;18.63;14.35;;;5.60;99.90;;;;;;5076972;28;20226;-73
2022/02/15 00:51:26;;;;;;;18.63;13.70;;;5.60;99.90;;;;;;5075587;28;20553;-73
2022/02/15 00:53:52;;;;;;;17.58;14.38;;;5.60;99.90;;;;;;5077185;28;20200;-72
2022/02/15 00:56:21;;;;;;;16.25;13.68;;;5.60;99.90;;;;;;5076836;28;20203;-74
2022/02/15 00:58:49;;;;;;;16.85;13.10;;;5.60;99.90;;;;;;5076995;28;20272;-74
2022/02/15 01:01:15;;;;;;;19.83;13.57;;;5.60;99.90;;;;;;5075994;28;20204;-73
2022/02/15 01:03:42;;;;;;;13.68;11.75;;;5.50;99.90;;;;;;5076504;28;20196;-74
2022/02/15 01:06:09;;;;;;;14.63;12.18;;;5.50;99.90;;;;;;5076562;28;20243;-73
2022/02/15 01:08:35;;;;;;;14.50;11.10;;;5.50;99.90;;;;;;5076440;28;20220;-73
2022/02/15 01:11:03;;;;;;;11.75;10.55;;;5.60;99.90;;;;;;5076321;28;20651;-73
2022/02/15 01:13:31;;;;;;;12.95;10.95;;;5.60;99.90;;;;;;5076146;28;20210;-73
2022/02/15 01:15:59;;;;;;;14.52;10.52;;;5.60;99.90;;;;;;5076559;28;20196;-74
2022/02/15 01:18:26;;;;;;;12.40;10.27;;;5.70;99.90;;;;;;5075079;28;20199;-74
2022/02/15 01:20:54;;;;;;;13.35;10.05;;;5.70;99.90;;;;;;5073297;28;20211;-74
2022/02/15 01:23:20;;;;;;;12.18;9.45;;;5.70;99.90;;;;;;5075729;28;20200;-73
2022/02/15 01:25:48;;;;;;;11.35;9.73;;;5.70;99.90;;;;;;5076218;28;20188;-74
2022/02/15 01:28:16;;;;;;;11.82;10.27;;;5.70;99.90;;;;;;5074835;28;20196;-74
2022/02/15 01:30:46;;;;;;;14.35;11.45;;;5.80;99.90;;;;;;5075759;28;20200;-73
2022/02/15 01:33:12;;;;;;;12.13;10.77;;;5.80;99.90;;;;;;5074685;28;20277;-73
2022/02/15 01:35:39;;;;;;;12.25;10.80;;;5.80;99.90;;;;;;5074783;28;20275;-74
2022/02/15 01:38:05;;;;;;;11.38;10.18;;;5.80;99.90;;;;;;5075523;28;20207;-73
2022/02/15 01:40:32;;;;;;;12.13;10.90;;;5.80;99.90;;;;;;5076099;28;20196;-73
2022/02/15 01:42:58;;;;;;;14.43;11.60;;;5.80;99.90;;;;;;5075984;28;20211;-73
2022/02/15 01:45:25;;;;;;;14.18;12.18;;;5.80;99.90;;;;;;5076134;28;20200;-74
2022/02/15 01:47:51;;;;;;;13.93;11.05;;;5.80;99.90;;;;;;5074706;28;20207;-74
2022/02/15 01:50:18;;;;;;;12.23;10.75;;;5.80;99.90;;;;;;5075804;28;20223;-74
2022/02/15 01:52:44;;;;;;;18.13;12.20;;;5.80;99.90;;;;;;5075676;28;20551;-75
2022/02/15 01:55:14;;;;;;;17.30;11.82;;;5.80;99.90;;;;;;5075560;28;20192;-74
2022/02/15 01:57:42;;;;;;;11.85;10.70;;;5.80;99.90;;;;;;5076143;28;20200;-75
2022/02/15 02:00:15;;;;;;;11.65;10.55;;;5.80;99.90;;;;;;5076009;28;20199;-74
2022/02/15 02:02:42;;;;;;;11.98;8.88;;;5.80;99.90;;;;;;5079206;28;20200;-74
2022/02/15 02:07:54;;;;;;;9.45;8.55;;;5.80;99.90;;;;;;5077581;28;20179;-74
2022/02/15 02:10:21;;;;;;;9.55;7.93;;;5.90;99.90;;;;;;5076586;28;20227;-74
2022/02/15 02:12:47;;;;;;;9.73;8.40;;;5.90;99.90;;;;;;5077898;28;20286;-75
2022/02/15 02:15:20;;;;;;;8.27;7.07;;;5.90;99.90;;;;;;5059780;28;20558;-74
2022/02/15 02:17:47;;;;;;;7.60;6.90;;;5.90;99.90;;;;;;5077132;28;20671;-74
2022/02/15 02:20:15;;;;;;;9.25;7.60;;;5.90;99.90;;;;;;5075807;28;20652;-74
2022/02/15 02:22:42;;;;;;;8.80;7.93;;;5.90;99.90;;;;;;5077042;28;20203;-74
2022/02/15 02:25:10;;;;;;;9.05;8.15;;;5.90;99.90;;;;;;5076939;28;20279;-74
2022/02/15 02:27:36;;;;;;;8.07;7.25;;;5.90;99.90;;;;;;5077071;28;20196;-74
2022/02/15 02:30:03;;;;;;;8.85;7.95;;;5.90;99.90;;;;;;5077269;28;20587;-74
2022/02/15 02:32:31;;;;;;;8.77;7.97;;;5.90;99.90;;;;;;5076773;28;20228;-74
2022/02/15 02:34:59;;;;;;;8.95;8.05;;;5.80;99.90;;;;;;5077401;28;20196;-74
2022/02/15 02:37:26;;;;;;;10.35;9.25;;;5.80;99.90;;;;;;5075166;28;20191;-74
2022/02/15 02:39:54;;;;;;;12.18;9.73;;;5.80;99.90;;;;;;5075563;28;20210;-74
2022/02/15 02:42:24;;;;;;;11.68;9.52;;;5.70;99.90;;;;;;5076702;28;20568;-74
2022/02/15 02:44:50;;;;;;;12.95;10.35;;;5.70;99.90;;;;;;5076827;28;20191;-74
2022/02/15 02:47:16;;;;;;;14.10;10.57;;;5.70;99.90;;;;;;5075423;28;20200;-74
2022/02/15 02:49:42;;;;;;;10.23;9.13;;;5.70;99.90;;;;;;5076977;28;20703;-74
2022/02/15 02:52:10;;;;;;;12.07;9.15;;;5.70;99.90;;;;;;5076046;28;20652;-74
2022/02/15 02:54:37;;;;;;;12.27;9.40;;;5.60;99.90;;;;;;5076730;28;20670;-74
2022/02/15 02:57:06;;;;;;;9.77;8.90;;;5.60;99.90;;;;;;5074716;28;20196;-74
2022/02/15 02:59:33;;;;;;;10.70;9.70;;;5.60;99.90;;;;;;5076302;28;20203;-74
2022/02/15 03:02:00;;;;;;;9.73;8.82;;;5.60;99.90;;;;;;5074359;28;20204;-74
2022/02/15 03:04:27;;;;;;;10.80;9.70;;;5.60;99.90;;;;;;5075639;28;20214;-73
2022/02/15 03:06:53;;;;;;;10.80;9.70;;;5.60;99.90;;;;;;5075334;28;20227;-75
2022/02/15 03:09:19;;;;;;;9.90;8.90;;;5.60;99.90;;;;;;5074180;28;20223;-74
2022/02/15 03:11:45;;;;;;;10.23;9.13;;;5.60;99.90;;;;;;5075904;28;20581;-74
2022/02/15 03:14:12;;;;;;;10.25;8.23;;;5.60;99.90;;;;;;5074881;28;20199;-73
2022/02/15 03:16:38;;;;;;;14.02;9.23;;;5.70;99.90;;;;;;5076293;28;20207;-74
2022/02/15 03:19:04;;;;;;;10.07;9.00;;;5.60;99.90;;;;;;5076176;28;20203;-74
2022/02/15 03:21:31;;;;;;;9.73;8.45;;;5.60;99.90;;;;;;5076485;28;20203;-74
2022/02/15 03:23:57;;;;;;;9.07;8.27;;;5.60;99.90;;;;;;5057866;28;20192;-73
2022/02/15 03:26:24;;;;;;;9.48;8.55;;;5.60;99.90;;;;;;5075163;28;20211;-74
2022/02/15 03:28:50;;;;;;;8.82;8.02;;;5.60;99.90;;;;;;5074710;28;20211;-75
2022/02/15 03:31:17;;;;;;;8.55;7.85;;;5.60;99.90;;;;;;5076299;28;20574;-74
2022/02/15 03:33:44;;;;;;;8.05;7.05;;;5.60;99.90;;;;;;5074989;28;20232;-74
2022/02/15 03:36:11;;;;;;;10.32;7.90;;;5.70;99.90;;;;;;5058037;28;20240;-74
2022/02/15 03:38:38;;;;;;;8.40;7.55;;;5.70;99.90;;;;;;5076366;28;20641;-74
2022/02/15 03:43:49;;;;;;;7.50;6.80;;;5.70;99.90;;;;;;5077391;28;20251;-74
2022/02/15 03:46:15;;;;;;;7.72;6.90;;;5.70;99.90;;;;;;5080436;28;20199;-74
2022/02/15 03:48:42;;;;;;;8.43;7.30;;;5.70;99.90;;;;;;5079739;28;20211;-74
2022/02/15 03:51:08;;;;;;;7.80;6.53;;;5.70;99.90;;;;;;5079712;28;20723;-74
2022/02/15 03:53:35;;;;;;;10.30;6.75;;;5.70;99.90;;;;;;5079059;28;20203;-74
2022/02/15 03:56:03;;;;;;;7.65;6.30;;;5.80;99.90;;;;;;5079407;28;20562;-74
2022/02/15 03:58:30;;;;;;;7.80;6.25;;;5.80;99.90;;;;;;5080217;28;20249;-74
2022/02/15 04:00:56;;;;;;;12.20;7.47;;;5.80;99.90;;;;;;5078713;28;20211;-74
2022/02/15 04:03:22;;;;;;;9.32;6.57;;;5.80;99.90;;;;;;5061929;28;20282;-74
2022/02/15 04:05:49;;;;;;;8.57;6.82;;;5.80;99.90;;;;;;5062390;28;20300;-74
2022/02/15 04:08:15;;;;;;;9.43;7.53;;;5.80;99.90;;;;;;5078709;28;20203;-74
2022/02/15 04:10:42;;;;;;;7.30;6.63;;;5.80;99.90;;;;;;5080503;28;20220;-74
2022/02/15 04:13:08;;;;;;;9.07;8.05;;;5.80;99.90;;;;;;5080020;28;20290;-74
2022/02/15 04:15:35;;;;;;;9.85;8.10;;;5.80;99.90;;;;;;5080312;28;20321;-73
2022/02/15 04:18:02;;;;;;;8.75;7.95;;;5.80;99.90;;;;;;5080830;28;20208;-73
2022/02/15 04:20:28;;;;;;;10.35;7.72;;;5.80;99.90;;;;;;5080144;28;20199;-73
2022/02/15 04:22:55;;;;;;;9.68;8.23;;;5.80;99.90;;;;;;5079109;28;20208;-73
2022/02/15 04:25:21;;;;;;;8.07;7.38;;;5.80;99.90;;;;;;5061810;28;20208;-73
2022/02/15 04:27:48;;;;;;;12.90;8.95;;;5.70;99.90;;;;;;5078850;28;20206;-73
2022/02/15 04:30:15;;;;;;;9.98;8.00;;;5.80;99.90;;;;;;5078762;28;20220;-73
2022/02/15 04:32:41;;;;;;;9.13;7.63;;;5.70;99.90;;;;;;5077864;28;20227;-73
2022/02/15 04:35:08;;;;;;;8.48;7.60;;;5.70;99.90;;;;;;5078775;28;20198;-73
2022/02/15 04:37:36;;;;;;;10.57;7.72;;;5.70;99.90;;;;;;5080202;28;20559;-73
2022/02/15 04:40:04;;;;;;;10.50;8.30;;;5.70;99.90;;;;;;5080008;28;20207;-74
2022/02/15 04:42:31;;;;;;;9.43;7.53;;;5.70;99.90;;;;;;5078436;28;20212;-74
2022/02/15 04:44:58;;;;;;;9.75;7.60;;;5.70;99.90;;;;;;5078445;28;20208;-74
2022/02/15 04:47:24;;;;;;;8.90;7.53;;;5.70;99.90;;;;;;5079435;28;20222;-74
2022/02/15 04:49:51;;;;;;;10.45;9.27;;;5.80;99.90;;;;;;5080467;28;20224;-74
2022/02/15 04:52:19;;;;;;;8.02;7.22;;;5.70;99.90;;;;;;5062416;28;20244;-74
2022/02/15 04:54:45;;;;;;;9.63;7.30;;;5.80;99.90;;;;;;5078599;28;20195;-74
2022/02/15 04:57:12;;;;;;;9.50;7.70;;;5.70;99.90;;;;;;5079068;28;20196;-74
2022/02/15 04:59:38;;;;;;;8.45;7.53;;;5.70;99.90;;;;;;5079967;28;20255;-73
2022/02/15 05:02:06;;;;;;;8.57;7.68;;;5.70;99.90;;;;;;5079195;28;20214;-74
2022/02/15 05:04:50;;;;;;;16.65;8.02;;;5.70;99.90;;;;;;5080273;28;20232;-73
2022/02/15 05:07:17;;;;;;;10.27;8.90;;;5.70;99.90;;;;;;5078164;28;20224;-73
2022/02/15 05:09:44;;;;;;;9.13;7.40;;;5.70;99.90;;;;;;5078877;28;20617;-73
2022/02/15 05:12:12;;;;;;;9.77;8.25;;;5.70;99.90;;;;;;5060476;28;20200;-73
2022/02/15 05:14:38;;;;;;;10.00;9.05;;;5.70;99.90;;;;;;5077275;28;20196;-73
2022/02/15 05:17:05;;;;;;;8.70;7.80;;;5.70;99.90;;;;;;5078832;28;20299;-73
2022/02/15 05:19:32;;;;;;;11.32;9.68;;;5.60;99.90;;;;;;5078795;28;20208;-73
2022/02/15 05:22:00;;;;;;;10.15;8.82;;;5.60;99.90;;;;;;5076120;28;20607;-73
2022/02/15 05:24:27;;;;;;;12.50;10.10;;;5.50;99.90;;;;;;5077134;28;20216;-73
2022/02/15 05:26:54;;;;;;;10.48;9.00;;;5.40;99.90;;;;;;5077185;28;20707;-73
2022/02/15 05:29:21;;;;;;;13.68;10.30;;;5.40;99.90;;;;;;5078288;28;20573;-73
2022/02/15 05:31:49;;;;;;;13.02;9.90;;;5.30;99.90;;;;;;5078443;28;20200;-73
2022/02/15 05:34:16;;;;;;;11.45;10.02;;;5.30;99.90;;;;;;5078621;28;20232;-74
2022/02/15 05:36:43;;;;;;;9.35;8.45;;;5.30;99.90;;;;;;5076642;28;20196;-74
2022/02/15 05:39:09;;;;;;;10.88;9.32;;;5.30;99.90;;;;;;5076662;28;20252;-74
2022/02/15 05:41:36;;;;;;;11.80;8.88;;;5.30;99.90;;;;;;5076869;28;20200;-74
2022/02/15 05:44:03;;;;;;;9.40;8.50;;;5.30;99.90;;;;;;5077364;28;20200;-74
2022/02/15 05:46:30;;;;;;;11.15;9.90;;;5.20;99.90;;;;;;5076868;28;20651;-74
2022/02/15 05:48:57;;;;;;;10.63;9.20;;;5.20;99.90;;;;;;5058751;28;20192;-74
2022/02/15 05:51:24;;;;;;;11.02;9.20;;;5.30;99.90;;;;;;5075442;28;20232;-73
2022/02/15 05:53:52;;;;;;;8.30;7.50;;;5.30;99.90;;;;;;5075239;28;20200;-73
2022/02/15 05:56:19;;;;;;;13.07;7.90;;;5.30;99.90;;;;;;5076706;28;20200;-73
2022/02/15 05:58:45;;;;;;;13.77;9.05;;;5.30;99.90;;;;;;5074933;28;20257;-73
2022/02/15 06:01:12;;;;;;;8.38;7.55;;;5.30;99.90;;;;;;5074608;28;20200;-73
2022/02/15 06:06:24;;;;;;;15.55;11.98;;;5.30;99.90;;;;;;5076785;28;20212;-73
2022/02/15 06:08:51;;;;;;;12.80;10.68;;;5.30;99.90;;;;;;5076776;28;20569;-73
2022/02/15 06:11:18;;;;;;;12.13;10.82;;;5.30;99.90;;;;;;5074842;28;20216;-73
2022/02/15 06:13:45;;;;;;;12.75;8.98;;;5.40;99.90;;;;;;5076964;28;20290;-72
2022/02/15 06:16:12;;;;;;;13.55;8.75;;;5.30;99.90;;;;;;5076615;28;20555;-73
2022/02/15 06:18:39;;;;;;;13.48;9.88;;;5.40;99.90;;;;;;5077283;28;20207;-73
2022/02/15 06:21:05;;;;;;;9.88;8.85;;;5.40;99.90;;;;;;5059534;28;20215;-73
2022/02/15 06:23:32;;;;;;;10.70;8.82;;;5.40;99.90;;;;;;5076031;28;20199;-73
2022/02/15 06:25:58;;;;;;;10.48;9.25;;;5.40;99.90;;;;;;5076563;28;20737;-73
2022/02/15 06:28:25;;;;;;;11.38;10.10;;;5.40;99.90;;;;;;5076600;28;20204;-74
2022/02/15 06:30:52;;;;;;;9.70;8.80;;;5.40;99.90;;;;;;5074956;28;20220;-74
2022/02/15 06:33:18;;;;;;;10.85;9.75;;;5.40;99.90;;;;;;5077203;28;20235;-74
2022/02/15 06:35:46;;;;;;;11.90;9.30;;;5.40;99.90;;;;;;5076150;28;20211;-73
2022/02/15 06:38:12;;;;;;;14.40;9.63;;;5.50;99.90;;;;;;5075481;28;20561;-74
2022/02/15 06:40:39;;;;;;;15.63;9.95;;;5.50;99.90;;;;;;5077158;28;20627;-74
2022/02/15 06:43:06;;;;;;;11.70;10.50;;;5.50;99.90;;;;;;5075491;28;20286;-74
2022/02/15 06:45:32;;;;;;;13.15;10.98;;;5.50;99.90;;;;;;5077378;28;20620;-74
2022/02/15 06:47:59;;;;;;;12.95;9.85;;;5.50;99.90;;;;;;5077569;28;20199;-73
2022/02/15 06:50:30;;;;;;;12.82;11.45;;;5.60;99.90;;;;;;5077428;28;20230;-76
2022/02/15 06:52:57;;;;;;;15.00;11.57;;;5.60;99.90;;;;;;5060739;28;20191;-74
2022/02/15 06:55:24;;;;;;;11.52;10.30;;;5.70;99.90;;;;;;5077678;28;20191;-75
2022/02/15 06:57:51;;;;;;;13.73;10.30;;;5.60;99.90;;;;;;5077531;28;20690;-75
2022/02/15 07:00:18;;;;;;;11.77;10.15;;;5.60;99.90;;;;;;5079147;28;20694;-75
2022/02/15 07:02:44;;;;;;;14.13;10.30;;;5.50;99.90;;;;;;5060824;28;20275;-75
2022/02/15 07:05:11;;;;;;;12.32;10.48;;;5.60;99.90;;;;;;5077887;28;20196;-75
2022/02/15 07:07:38;;;;;;;11.48;10.27;;;5.60;99.90;;;;;;5078068;28;20627;-75
2022/02/15 07:10:05;;;;;;;10.80;9.70;;;5.60;99.90;;;;;;5075802;28;20258;-75
2022/02/15 07:12:32;;;;;;;13.57;8.82;;;5.60;99.90;;;;;;5076216;28;20207;-75
2022/02/15 07:14:59;;;;;;;9.98;8.98;;;5.60;99.90;;;;;;5077745;28;20199;-75
2022/02/15 07:17:26;;;;;;;10.48;9.23;;;5.70;99.90;;;;;;5076273;28;20200;-75
2022/02/15 07:19:53;;;;;;;10.88;9.77;;;5.70;99.90;;;;;;5073862;28;20207;-75
2022/02/15 07:22:20;;;;;;;9.80;8.80;;;5.80;99.90;;;;;;5074880;28;20203;-75
2022/02/15 07:24:47;;;;;;;10.38;8.45;;;5.80;99.90;;;;;;5076227;28;20200;-75
2022/02/15 07:27:15;;;;;;;12.95;8.98;;;5.80;99.90;;;;;;5075291;28;20211;-75
2022/02/15 07:29:41;;;;;;;10.43;8.82;;;5.80;99.90;;;;;;5075737;28;20290;-75
2022/02/15 07:32:08;;;;;;;11.65;9.32;;;5.80;99.90;;;;;;5076697;28;20196;-75
2022/02/15 07:34:34;;;;;;;11.63;10.07;;;5.80;99.90;;;;;;5075209;28;20213;-75
2022/02/15 07:37:01;;;;;;;10.20;7.90;;;5.80;99.90;;;;;;5075720;28;20656;-75
2022/02/15 07:39:28;;;;;;;11.27;8.55;;;5.90;99.90;;;;;;5075721;28;20735;-75
2022/02/15 07:42:02;;;;;;;11.25;9.50;;;5.90;99.90;;;;;;5075411;28;20286;-75
2022/02/15 07:44:29;;;;;;;9.63;8.07;;;5.90;99.90;;;;;;5076802;28;20200;-75
2022/02/15 07:46:55;;;;;;;10.25;8.60;;;6.00;99.90;;;;;;5076449;28;20200;-75
2022/02/15 07:49:22;;;;;;;9.50;8.40;;;6.00;99.90;;;;;;5076115;28;20652;-75
2022/02/15 07:51:50;;;;;;;9.13;7.72;;;6.10;99.90;;;;;;5076336;28;20230;-74
2022/02/15 07:54:18;;;;;;;8.15;7.35;;;6.10;99.90;;;;;;5074993;28;20204;-74
2022/02/15 07:56:46;;;;;;;10.23;7.50;;;6.10;99.90;;;;;;5074541;28;20199;-74
2022/02/15 07:59:16;;;;;;;8.68;7.82;;;6.20;99.90;;;;;;5075687;28;20207;-74
2022/02/15 08:01:43;;;;;;;9.70;7.00;;;6.20;99.90;;;;;;5075617;28;20558;-75
2022/02/15 08:04:13;;;;;;;7.47;6.60;;;6.30;99.90;;;;;;5074118;28;20260;-75
2022/02/15 08:06:41;;;;;;;9.95;7.68;;;6.30;99.90;;;;;;5073762;28;20234;-74
2022/02/15 08:09:14;;;;;;;8.98;7.13;;;6.40;99.90;;;;;;5075658;28;20204;-74
2022/02/15 08:11:44;;;;;;;10.18;7.93;;;6.40;99.90;;;;;;5072596;28;20219;-74
2022/02/15 08:14:11;;;;;;;7.22;6.55;;;6.50;99.90;;;;;;5072854;28;20200;-74
2022/02/15 08:16:38;;;;;;;8.23;6.68;;;6.50;99.90;;;;;;5072828;28;20778;-73
2022/02/15 08:19:04;;;;;;;7.55;6.85;;;6.60;99.90;;;;;;5074069;28;20192;-74
2022/02/15 08:21:31;;;;;;;7.35;6.65;;;6.60;99.90;;;;;;5072441;28;20549;-74
2022/02/15 08:23:57;;;;;;;8.40;6.70;;;6.60;99.90;;;;;;5074054;28;20204;-75
2022/02/15 08:26:25;;;;;;;12.32;6.75;;;6.60;99.90;;;;;;5073640;28;20200;-74
2022/02/15 08:28:52;;;;;;;6.55;5.90;;;6.60;99.90;;;;;;5073801;28;20215;-74
2022/02/15 08:31:20;;;;;;;6.47;5.90;;;6.70;99.90;;;;;;5075925;28;20728;-74
2022/02/15 08:33:46;;;;;;;7.70;6.82;;;6.70;99.90;;;;;;5076944;28;20228;-74
2022/02/15 08:36:13;;;;;;;7.80;5.47;;;6.70;99.90;;;;;;5077206;28;20720;-74
2022/02/15 08:38:40;;;;;;;6.30;5.68;;;6.70;99.90;;;;;;5075952;28;20196;-75
2022/02/15 08:41:06;;;;;;;8.68;5.15;;;6.70;99.90;;;;;;5058695;28;20577;-73
2022/02/15 08:43:33;;;;;;;4.43;4.03;;;6.80;99.90;;;;;;5077232;28;20204;-73
2022/02/15 08:46:00;;;;;;;4.60;4.20;;;6.90;99.90;;;;;;5075452;28;20201;-73
2022/02/15 08:48:26;;;;;;;4.40;4.00;;;7.10;99.90;;;;;;5058733;28;20211;-73
2022/02/15 08:50:53;;;;;;;4.75;3.60;;;7.30;99.90;;;;;;5076010;28;20230;-74
2022/02/15 08:53:19;;;;;;;4.53;3.30;;;7.40;99.90;;;;;;5076085;28;20683;-74
2022/02/15 08:55:46;;;;;;;3.70;3.40;;;7.60;99.90;;;;;;5075273;28;20192;-73
2022/02/15 08:58:13;;;;;;;3.92;3.50;;;7.70;99.90;;;;;;5076630;28;20237;-74
2022/02/15 09:00:40;;;;;;;11.25;4.18;;;7.80;99.90;;;;;;5075851;28;20203;-74
2022/02/15 09:03:07;;;;;;;3.60;3.30;;;8.00;99.90;;;;;;5076546;28;20208;-74
2022/02/15 09:05:33;;;;;;;2.90;2.63;;;8.20;99.90;;;;;;5076289;28;20200;-75
2022/02/15 09:08:00;;;;;;;3.50;3.20;;;8.30;99.90;;;;;;5059229;28;20257;-74
2022/02/15 09:10:26;;;;;;;3.10;2.80;;;8.20;99.90;;;;;;5076493;28;20223;-73
2022/02/15 09:12:53;;;;;;;2.78;2.58;;;8.40;99.90;;;;;;5076711;28;20253;-74
2022/02/15 09:15:19;;;;;;;6.50;3.65;;;8.60;99.90;;;;;;5076524;28;20206;-74
2022/02/15 09:17:46;;;;;;;3.30;3.10;;;8.50;99.90;;;;;;5058420;28;20200;-73
2022/02/15 09:20:12;;;;;;;3.78;3.47;;;8.50;99.90;;;;;;5074910;28;20196;-74
2022/02/15 09:22:40;;;;;;;7.47;3.63;;;8.50;99.90;;;;;;5076414;28;20196;-74
2022/02/15 09:25:08;;;;;;;3.33;3.13;;;8.50;99.90;;;;;;5076391;28;20229;-74
2022/02/15 09:27:34;;;;;;;3.05;2.42;;;8.40;99.90;;;;;;5076794;28;20204;-74
2022/02/15 09:30:00;;;;;;;3.42;3.20;;;8.50;99.90;;;;;;5076154;28;20196;-73
2022/02/15 09:32:27;;;;;;;4.75;3.00;;;8.70;99.90;;;;;;5076318;28;20235;-73
2022/02/15 09:34:54;;;;;;;3.03;2.72;;;8.70;99.90;;;;;;5076060;28;20184;-73
2022/02/15 09:37:20;;;;;;;3.50;3.20;;;8.40;99.90;;;;;;5076445;28;20530;-74
2022/02/15 09:39:48;;;;;;;2.90;2.42;;;8.50;99.90;;;;;;5076381;28;20196;-73
2022/02/15 09:42:15;;;;;;;3.30;2.65;;;8.60;99.90;;;;;;5073372;28;20207;-73
2022/02/15 09:44:42;;;;;;;2.95;2.70;;;8.60;99.90;;;;;;5075643;28;20659;-73
2022/02/15 09:47:11;;;;;;;2.53;2.38;;;8.60;99.90;;;;;;5074775;28;20203;-73
2022/02/15 09:49:50;;;;;;;4.00;2.50;;;8.50;99.90;;;;;;5074683;28;20211;-74
2022/02/15 09:52:25;;;;;;;4.20;2.50;;;8.50;99.90;;;;;;5059538;28;20231;-73
2022/02/15 09:54:55;;;;;;;2.35;2.25;;;8.50;99.90;;;;;;5076772;28;20190;-74
2022/02/15 09:57:23;;;;;;;3.92;2.65;;;8.60;99.90;;;;;;5075548;28;20250;-74
2022/02/15 09:59:50;;;;;;;2.88;2.60;;;8.70;99.90;;;;;;5074658;28;20260;-72
2022/02/15 10:02:29;;;;;;;2.30;2.10;;;8.60;99.90;;;;;;5075776;28;20200;-73
2022/02/15 10:04:57;;;;;;;2.53;2.13;;;8.70;99.90;;;;;;5073965;28;20222;-73
2022/02/15 10:07:25;;;;;;;4.93;2.75;;;8.50;99.90;;;;;;5075388;28;20215;-74
2022/02/15 10:09:53;;;;;;;2.85;2.65;;;8.50;99.90;;;;;;5074382;28;20210;-74
2022/02/15 10:12:21;;;;;;;2.63;2.42;;;8.50;99.90;;;;;;5057706;28;20220;-74
2022/02/15 10:14:52;;;;;;;2.63;2.45;;;8.50;99.90;;;;;;5057557;28;20199;-74
2022/02/15 10:17:20;;;;;;;3.15;2.95;;;8.50;99.90;;;;;;5073944;28;20631;-74
2022/02/15 10:19:49;;;;;;;2.55;2.42;;;8.60;99.90;;;;;;5074813;28;20571;-74
2022/02/15 10:22:18;;;;;;;3.28;2.85;;;8.60;99.90;;;;;;5074794;28;20616;-74
2022/02/15 10:24:53;;;;;;;3.55;2.65;;;8.60;99.90;;;;;;5075265;28;20574;-74
2022/02/15 10:27:31;;;;;;;2.65;2.45;;;8.60;99.90;;;;;;5075406;28;20191;-74
2022/02/15 10:29:59;;;;;;;2.85;2.60;;;8.70;99.90;;;;;;5074116;28;20192;-74
2022/02/15 10:32:25;;;;;;;2.45;2.35;;;8.70;99.90;;;;;;5074214;28;20231;-73
2022/02/15 10:34:58;;;;;;;7.82;2.65;;;8.70;99.90;;;;;;5073588;28;20601;-73
2022/02/15 10:37:30;;;;;;;4.30;2.63;;;8.60;99.90;;;;;;5075693;28;20196;-73
2022/02/15 10:40:04;;;;;;;3.30;3.08;;;8.60;99.90;;;;;;5075433;28;20200;-73
2022/02/15 10:42:32;;;;;;;3.40;3.20;;;8.60;99.90;;;;;;5075012;28;20187;-74
2022/02/15 10:45:02;;;;;;;3.22;3.00;;;8.50;99.90;;;;;;5058375;28;20282;-74
2022/02/15 10:47:32;;;;;;;3.13;2.83;;;8.50;99.90;;;;;;5075222;28;20204;-74
2022/02/15 10:50:05;;;;;;;2.83;2.60;;;8.60;99.90;;;;;;5075595;28;20203;-73
2022/02/15 10:52:33;;;;;;;2.67;2.30;;;8.70;99.90;;;;;;5073670;28;20199;-74
2022/02/15 10:55:00;;;;;;;4.30;2.83;;;8.80;99.90;;;;;;5075186;28;20705;-74
2022/02/15 10:57:29;;;;;;;3.38;3.08;;;9.00;99.90;;;;;;5057665;28;20612;-75
2022/02/15 10:59:58;;;;;;;3.17;2.90;;;8.90;99.90;;;;;;5075820;28;20196;-75
2022/02/15 11:02:30;;;;;;;5.88;3.40;;;9.00;99.90;;;;;;5075876;28;20200;-72
2022/02/15 11:05:02;;;;;;;3.15;2.90;;;9.00;99.90;;;;;;5076866;28;20204;-74
2022/02/15 11:07:31;;;;;;;5.35;2.70;;;9.10;99.90;;;;;;5075090;28;20230;-74
2022/02/15 11:10:05;;;;;;;2.55;2.35;;;9.20;99.90;;;;;;5075106;28;20210;-74
2022/02/15 11:12:54;;;;;;;2.60;2.50;;;9.30;99.90;;;;;;5075219;28;20575;-73
2022/02/15 11:15:29;;;;;;;3.20;2.95;;;9.60;99.90;;;;;;5074724;28;20769;-73
2022/02/15 11:17:58;;;;;;;4.32;2.80;;;9.50;99.90;;;;;;5074822;28;20241;-74
2022/02/15 11:20:29;;;;;;;3.38;3.08;;;9.40;99.90;;;;;;5057986;28;20207;-74
2022/02/15 11:23:02;;;;;;;5.82;2.60;;;9.50;99.90;;;;;;5074809;28;20199;-74
2022/02/15 11:25:34;;;;;;;3.15;2.90;;;9.40;99.90;;;;;;5076365;28;20186;-73
2022/02/15 11:28:08;;;;;;;4.30;2.40;;;9.20;99.90;;;;;;5079509;28;20199;-72
2022/02/15 11:31:00;;;;;;;2.58;2.45;;;9.20;99.90;;;;;;5057394;28;20222;-74
2022/02/15 11:33:31;;;;;;;2.60;2.20;;;9.10;99.90;;;;;;5075475;28;20285;-75
2022/02/15 11:36:07;;;;;;;6.10;2.42;;;9.00;99.90;;;;;;5074459;28;20208;-74
2022/02/15 11:38:38;;;;;;;2.50;2.30;;;8.90;99.90;;;;;;5075338;28;20329;-75
2022/02/15 11:41:08;;;;;;;3.53;3.08;;;8.90;99.90;;;;;;5073876;28;20218;-73
2022/02/15 11:43:35;;;;;;;4.25;2.70;;;9.00;99.90;;;;;;5076234;28;20333;-74
2022/02/15 11:46:04;;;;;;;2.70;2.50;;;8.90;99.90;;;;;;5057514;28;20207;-74
2022/02/15 11:48:39;;;;;;;2.80;2.60;;;8.90;99.90;;;;;;5055999;28;21130;-73
2022/02/15 11:51:23;;;;;;;2.90;2.70;;;9.00;99.90;;;;;;5075027;28;20223;-72
2022/02/15 11:53:57;;;;;;;3.30;3.00;;;9.20;99.90;;;;;;5058935;28;20207;-72
2022/02/15 11:56:24;;;;;;;2.25;2.00;;;9.20;99.90;;;;;;5074102;28;20523;-73
2022/02/15 11:58:52;;;;;;;6.97;2.60;;;9.20;99.90;;;;;;5074121;28;20260;-72
2022/02/15 12:01:24;;;;;;;2.63;2.42;;;9.20;99.90;;;;;;5073844;28;20208;-72
2022/02/15 12:03:51;;;;;;;3.92;2.28;;;9.00;99.90;;;;;;5076141;28;20214;-73
2022/02/15 12:06:19;;;;;;;3.38;2.17;;;8.80;99.90;;;;;;5079378;28;20284;-73
2022/02/15 12:08:56;;;;;;;2.53;2.33;;;8.70;99.90;;;;;;5078254;28;20208;-72
2022/02/15 12:11:36;;;;;;;2.10;2.00;;;8.90;99.90;;;;;;5078438;28;20224;-73
2022/02/15 12:14:07;;;;;;;2.33;2.15;;;8.90;99.90;;;;;;5078068;28;20712;-72
2022/02/15 12:16:41;;;;;;;2.28;1.98;;;9.00;99.90;;;;;;5076941;28;20199;-72
2022/02/15 12:19:07;;;;;;;2.78;1.90;;;9.00;99.90;;;;;;5078004;28;20663;-72
2022/02/15 12:21:40;;;;;;;2.65;1.63;;;8.90;99.90;;;;;;5078262;28;20200;-73
2022/02/15 12:24:07;;;;;;;4.20;2.65;;;8.90;99.90;;;;;;5078359;28;20547;-73
2022/02/15 12:26:39;;;;;;;1.80;1.70;;;9.00;99.90;;;;;;5078047;28;20211;-72
2022/02/15 12:29:06;;;;;;;1.77;1.67;;;9.00;99.90;;;;;;5079288;28;20230;-72
2022/02/15 12:31:33;;;;;;;3.20;2.10;;;9.20;99.90;;;;;;5079584;28;20212;-73
2022/02/15 12:34:01;;;;;;;3.22;2.15;;;9.10;99.90;;;;;;5080245;28;20235;-73
2022/02/15 12:36:33;;;;;;;4.25;2.70;;;9.00;99.90;;;;;;5078497;28;20208;-72
2022/02/15 12:39:01;;;;;;;5.15;3.05;;;9.40;99.90;;;;;;5078333;28;20204;-72
2022/02/15 12:41:28;;;;;;;2.40;2.20;;;9.50;99.90;;;;;;5080218;28;20200;-72
2022/02/15 12:44:00;;;;;;;2.50;2.30;;;9.30;99.90;;;;;;5060543;28;20676;-73
2022/02/15 12:46:28;;;;;;;3.30;3.00;;;9.30;99.90;;;;;;5076826;28;20200;-73
2022/02/15 12:49:02;;;;;;;2.45;2.20;;;9.20;99.90;;;;;;5077128;28;20664;-73
2022/02/15 12:51:32;;;;;;;2.42;2.15;;;9.20;99.90;;;;;;5077230;28;20215;-73
2022/02/15 12:54:00;;;;;;;2.65;2.38;;;9.30;99.90;;;;;;5078420;28;20565;-72
2022/02/15 12:56:31;;;;;;;2.85;2.65;;;9.40;99.90;;;;;;5064411;28;20192;-73
2022/02/15 12:59:05;;;;;;;2.53;2.40;;;9.30;99.90;;;;;;5080404;28;20196;-72
2022/02/15 13:01:34;;;;;;;2.88;2.50;;;9.30;99.90;;;;;;5080469;28;20303;-73